sensor_id;sensor_type;location;lat;lon;timestamp;temperature;humidity
33865;DHT22;20159;51.072;13.526;2023-05-07T00:01:56;12.20;92.50
33865;DHT22;20159;51.072;13.526;2023-05-07T00:04:21;12.20;92.50
33865;DHT22;20159;51.072;13.526;2023-05-07T00:06:47;12.10;92.50
33865;DHT22;20159;51.072;13.526;2023-05-07T00:09:12;12.10;92.50
33865;DHT22;20159;51.072;13.526;2023-05-07T00:11:38;12.10;92.60
33865;DHT22;20159;51.072;13.526;2023-05-07T00:14:03;12.10;92.80
33865;DHT22;20159;51.072;13.526;2023-05-07T00:16:29;12.10;92.80
33865;DHT22;20159;51.072;13.526;2023-05-07T00:18:54;12.10;92.90
33865;DHT22;20159;51.072;13.526;2023-05-07T00:21:20;12.00;92.90
33865;DHT22;20159;51.072;13.526;2023-05-07T00:23:47;12.10;93.00
33865;DHT22;20159;51.072;13.526;2023-05-07T00:26:12;12.10;93.00
33865;DHT22;20159;51.072;13.526;2023-05-07T00:28:38;12.00;93.00
33865;DHT22;20159;51.072;13.526;2023-05-07T00:31:03;12.00;93.10
33865;DHT22;20159;51.072;13.526;2023-05-07T00:33:29;12.00;93.10
33865;DHT22;20159;51.072;13.526;2023-05-07T00:35:54;12.00;93.10
33865;DHT22;20159;51.072;13.526;2023-05-07T00:38:20;12.00;93.10
33865;DHT22;20159;51.072;13.526;2023-05-07T00:40:46;12.00;93.00
33865;DHT22;20159;51.072;13.526;2023-05-07T00:43:12;12.00;93.00
33865;DHT22;20159;51.072;13.526;2023-05-07T00:45:38;12.00;93.00
33865;DHT22;20159;51.072;13.526;2023-05-07T00:48:03;12.00;93.10
33865;DHT22;20159;51.072;13.526;2023-05-07T00:50:30;12.00;93.10
33865;DHT22;20159;51.072;13.526;2023-05-07T00:52:56;12.00;93.10
33865;DHT22;20159;51.072;13.526;2023-05-07T00:55:23;11.90;93.10
33865;DHT22;20159;51.072;13.526;2023-05-07T00:57:49;11.90;93.10
33865;DHT22;20159;51.072;13.526;2023-05-07T01:00:16;11.90;93.20
33865;DHT22;20159;51.072;13.526;2023-05-07T01:02:42;11.90;93.20
33865;DHT22;20159;51.072;13.526;2023-05-07T01:05:12;11.90;93.30
33865;DHT22;20159;51.072;13.526;2023-05-07T01:07:40;11.80;93.30
33865;DHT22;20159;51.072;13.526;2023-05-07T01:10:06;11.80;93.40
33865;DHT22;20159;51.072;13.526;2023-05-07T01:12:34;11.80;93.40
33865;DHT22;20159;51.072;13.526;2023-05-07T01:15:00;11.80;93.40
33865;DHT22;20159;51.072;13.526;2023-05-07T01:17:26;11.80;93.40
33865;DHT22;20159;51.072;13.526;2023-05-07T01:19:51;11.80;93.50
33865;DHT22;20159;51.072;13.526;2023-05-07T01:22:28;11.80;93.50
33865;DHT22;20159;51.072;13.526;2023-05-07T01:24:55;11.80;93.80
33865;DHT22;20159;51.072;13.526;2023-05-07T01:27:21;11.80;93.50
33865;DHT22;20159;51.072;13.526;2023-05-07T01:29:47;11.80;93.60
33865;DHT22;20159;51.072;13.526;2023-05-07T01:32:13;11.80;93.50
33865;DHT22;20159;51.072;13.526;2023-05-07T01:34:40;11.80;93.50
33865;DHT22;20159;51.072;13.526;2023-05-07T01:37:06;11.80;93.40
33865;DHT22;20159;51.072;13.526;2023-05-07T01:39:32;11.80;93.40
33865;DHT22;20159;51.072;13.526;2023-05-07T01:41:58;11.80;93.40
33865;DHT22;20159;51.072;13.526;2023-05-07T01:44:25;11.70;93.40
33865;DHT22;20159;51.072;13.526;2023-05-07T01:46:51;11.80;93.40
33865;DHT22;20159;51.072;13.526;2023-05-07T01:49:17;11.70;93.40
33865;DHT22;20159;51.072;13.526;2023-05-07T01:51:43;11.70;93.40
33865;DHT22;20159;51.072;13.526;2023-05-07T01:54:09;11.70;93.50
33865;DHT22;20159;51.072;13.526;2023-05-07T01:56:35;11.70;93.60
33865;DHT22;20159;51.072;13.526;2023-05-07T01:59:00;11.70;93.50
33865;DHT22;20159;51.072;13.526;2023-05-07T02:01:27;11.70;93.50
33865;DHT22;20159;51.072;13.526;2023-05-07T02:03:53;11.70;93.60
33865;DHT22;20159;51.072;13.526;2023-05-07T02:06:19;11.70;93.60
33865;DHT22;20159;51.072;13.526;2023-05-07T02:08:45;11.70;93.50
33865;DHT22;20159;51.072;13.526;2023-05-07T02:11:10;11.70;93.50
33865;DHT22;20159;51.072;13.526;2023-05-07T02:13:36;11.70;93.60
33865;DHT22;20159;51.072;13.526;2023-05-07T02:16:02;11.70;93.60
33865;DHT22;20159;51.072;13.526;2023-05-07T02:18:28;11.90;93.60
33865;DHT22;20159;51.072;13.526;2023-05-07T02:20:53;11.70;93.60
33865;DHT22;20159;51.072;13.526;2023-05-07T02:23:19;11.70;93.60
33865;DHT22;20159;51.072;13.526;2023-05-07T02:25:45;11.70;93.60
33865;DHT22;20159;51.072;13.526;2023-05-07T02:28:11;11.70;93.60
33865;DHT22;20159;51.072;13.526;2023-05-07T02:30:37;11.80;93.60
33865;DHT22;20159;51.072;13.526;2023-05-07T02:33:03;11.70;93.50
33865;DHT22;20159;51.072;13.526;2023-05-07T02:35:29;11.70;93.40
33865;DHT22;20159;51.072;13.526;2023-05-07T02:37:54;11.70;93.40
33865;DHT22;20159;51.072;13.526;2023-05-07T02:40:20;11.70;93.40
33865;DHT22;20159;51.072;13.526;2023-05-07T02:42:46;11.70;93.30
33865;DHT22;20159;51.072;13.526;2023-05-07T02:45:11;11.70;93.40
33865;DHT22;20159;51.072;13.526;2023-05-07T02:47:37;11.70;93.40
33865;DHT22;20159;51.072;13.526;2023-05-07T02:50:03;11.70;93.40
33865;DHT22;20159;51.072;13.526;2023-05-07T02:52:29;11.70;93.40
33865;DHT22;20159;51.072;13.526;2023-05-07T02:54:54;11.70;93.40
33865;DHT22;20159;51.072;13.526;2023-05-07T02:57:23;11.70;93.40
33865;DHT22;20159;51.072;13.526;2023-05-07T02:59:48;11.70;93.40
33865;DHT22;20159;51.072;13.526;2023-05-07T03:02:14;11.70;93.40
33865;DHT22;20159;51.072;13.526;2023-05-07T03:04:40;11.60;93.40
33865;DHT22;20159;51.072;13.526;2023-05-07T03:07:05;11.70;93.40
33865;DHT22;20159;51.072;13.526;2023-05-07T03:09:31;11.70;93.50
33865;DHT22;20159;51.072;13.526;2023-05-07T03:11:56;11.70;93.40
33865;DHT22;20159;51.072;13.526;2023-05-07T03:14:22;11.60;93.40
33865;DHT22;20159;51.072;13.526;2023-05-07T03:16:48;11.70;93.40
33865;DHT22;20159;51.072;13.526;2023-05-07T03:19:14;11.60;93.30
33865;DHT22;20159;51.072;13.526;2023-05-07T03:21:39;11.60;93.40
33865;DHT22;20159;51.072;13.526;2023-05-07T03:24:05;11.70;93.50
33865;DHT22;20159;51.072;13.526;2023-05-07T03:26:31;11.60;93.50
33865;DHT22;20159;51.072;13.526;2023-05-07T03:28:56;11.70;93.50
33865;DHT22;20159;51.072;13.526;2023-05-07T03:31:21;11.60;93.50
33865;DHT22;20159;51.072;13.526;2023-05-07T03:33:52;11.60;93.50
33865;DHT22;20159;51.072;13.526;2023-05-07T03:36:18;11.60;93.60
33865;DHT22;20159;51.072;13.526;2023-05-07T03:38:50;11.60;93.50
33865;DHT22;20159;51.072;13.526;2023-05-07T03:41:15;11.60;93.70
33865;DHT22;20159;51.072;13.526;2023-05-07T03:43:41;14.80;94.30
33865;DHT22;20159;51.072;13.526;2023-05-07T03:46:07;11.60;93.40
33865;DHT22;20159;51.072;13.526;2023-05-07T03:48:32;11.60;93.40
33865;DHT22;20159;51.072;13.526;2023-05-07T03:50:58;11.60;93.40
33865;DHT22;20159;51.072;13.526;2023-05-07T03:53:24;11.60;93.40
33865;DHT22;20159;51.072;13.526;2023-05-07T03:55:50;11.60;93.40
33865;DHT22;20159;51.072;13.526;2023-05-07T03:58:15;11.50;93.30
33865;DHT22;20159;51.072;13.526;2023-05-07T04:00:41;11.50;93.20
33865;DHT22;20159;51.072;13.526;2023-05-07T04:03:07;11.60;93.20
33865;DHT22;20159;51.072;13.526;2023-05-07T04:05:32;11.50;93.10
33865;DHT22;20159;51.072;13.526;2023-05-07T04:07:58;11.50;93.10
33865;DHT22;20159;51.072;13.526;2023-05-07T04:10:25;11.50;93.20
33865;DHT22;20159;51.072;13.526;2023-05-07T04:12:50;11.50;93.20
33865;DHT22;20159;51.072;13.526;2023-05-07T04:15:16;11.50;93.20
33865;DHT22;20159;51.072;13.526;2023-05-07T04:17:42;11.50;93.30
33865;DHT22;20159;51.072;13.526;2023-05-07T04:20:14;11.50;93.20
33865;DHT22;20159;51.072;13.526;2023-05-07T04:22:40;11.50;93.30
33865;DHT22;20159;51.072;13.526;2023-05-07T04:25:06;11.50;93.30
33865;DHT22;20159;51.072;13.526;2023-05-07T04:27:31;11.50;93.30
33865;DHT22;20159;51.072;13.526;2023-05-07T04:29:57;11.50;93.40
33865;DHT22;20159;51.072;13.526;2023-05-07T04:32:23;11.50;93.40
33865;DHT22;20159;51.072;13.526;2023-05-07T04:34:50;11.60;93.40
33865;DHT22;20159;51.072;13.526;2023-05-07T04:37:16;11.60;93.30
33865;DHT22;20159;51.072;13.526;2023-05-07T04:39:41;11.60;93.30
33865;DHT22;20159;51.072;13.526;2023-05-07T04:42:07;11.60;93.30
33865;DHT22;20159;51.072;13.526;2023-05-07T04:44:34;11.60;93.20
33865;DHT22;20159;51.072;13.526;2023-05-07T04:47:00;11.70;93.20
33865;DHT22;20159;51.072;13.526;2023-05-07T04:49:25;11.60;93.20
33865;DHT22;20159;51.072;13.526;2023-05-07T04:51:51;11.60;93.20
33865;DHT22;20159;51.072;13.526;2023-05-07T04:54:17;11.70;93.20
33865;DHT22;20159;51.072;13.526;2023-05-07T04:56:42;11.70;93.20
33865;DHT22;20159;51.072;13.526;2023-05-07T04:59:08;11.70;93.10
33865;DHT22;20159;51.072;13.526;2023-05-07T05:01:33;11.70;93.10
33865;DHT22;20159;51.072;13.526;2023-05-07T05:03:59;11.80;93.10
33865;DHT22;20159;51.072;13.526;2023-05-07T05:06:25;11.80;93.10
33865;DHT22;20159;51.072;13.526;2023-05-07T05:08:51;11.80;93.00
33865;DHT22;20159;51.072;13.526;2023-05-07T05:11:19;11.80;92.90
33865;DHT22;20159;51.072;13.526;2023-05-07T05:13:45;11.90;92.80
33865;DHT22;20159;51.072;13.526;2023-05-07T05:16:14;11.90;92.80
33865;DHT22;20159;51.072;13.526;2023-05-07T05:18:39;11.90;92.70
33865;DHT22;20159;51.072;13.526;2023-05-07T05:21:05;11.90;92.80
33865;DHT22;20159;51.072;13.526;2023-05-07T05:23:30;11.90;92.70
33865;DHT22;20159;51.072;13.526;2023-05-07T05:25:57;11.90;92.70
33865;DHT22;20159;51.072;13.526;2023-05-07T05:28:25;11.90;92.60
33865;DHT22;20159;51.072;13.526;2023-05-07T05:30:50;11.90;92.70
33865;DHT22;20159;51.072;13.526;2023-05-07T05:33:16;12.00;92.70
33865;DHT22;20159;51.072;13.526;2023-05-07T05:35:42;12.00;92.60
33865;DHT22;20159;51.072;13.526;2023-05-07T05:38:07;12.00;92.60
33865;DHT22;20159;51.072;13.526;2023-05-07T05:40:33;12.00;92.60
33865;DHT22;20159;51.072;13.526;2023-05-07T05:42:59;12.00;92.50
33865;DHT22;20159;51.072;13.526;2023-05-07T05:45:24;12.10;92.50
33865;DHT22;20159;51.072;13.526;2023-05-07T05:47:50;12.10;92.40
33865;DHT22;20159;51.072;13.526;2023-05-07T05:50:16;12.10;92.40
33865;DHT22;20159;51.072;13.526;2023-05-07T05:52:41;12.10;92.30
33865;DHT22;20159;51.072;13.526;2023-05-07T05:55:07;12.10;92.20
33865;DHT22;20159;51.072;13.526;2023-05-07T05:57:33;12.10;92.20
33865;DHT22;20159;51.072;13.526;2023-05-07T06:00:00;12.10;92.30
33865;DHT22;20159;51.072;13.526;2023-05-07T06:02:26;12.10;92.30
33865;DHT22;20159;51.072;13.526;2023-05-07T06:04:52;12.10;92.30
33865;DHT22;20159;51.072;13.526;2023-05-07T06:07:17;12.10;92.30
33865;DHT22;20159;51.072;13.526;2023-05-07T06:09:43;12.10;92.20
33865;DHT22;20159;51.072;13.526;2023-05-07T06:12:09;12.10;92.20
33865;DHT22;20159;51.072;13.526;2023-05-07T06:14:34;12.20;92.20
33865;DHT22;20159;51.072;13.526;2023-05-07T06:17:00;12.10;92.10
33865;DHT22;20159;51.072;13.526;2023-05-07T06:19:25;12.20;92.00
33865;DHT22;20159;51.072;13.526;2023-05-07T06:21:53;12.20;91.90
33865;DHT22;20159;51.072;13.526;2023-05-07T06:24:19;12.20;91.80
33865;DHT22;20159;51.072;13.526;2023-05-07T06:26:44;12.20;91.80
33865;DHT22;20159;51.072;13.526;2023-05-07T06:29:10;12.20;91.70
33865;DHT22;20159;51.072;13.526;2023-05-07T06:31:35;12.30;91.70
33865;DHT22;20159;51.072;13.526;2023-05-07T06:34:01;12.30;91.60
33865;DHT22;20159;51.072;13.526;2023-05-07T06:36:27;12.30;91.60
33865;DHT22;20159;51.072;13.526;2023-05-07T06:38:53;12.30;91.60
33865;DHT22;20159;51.072;13.526;2023-05-07T06:41:18;12.30;91.50
33865;DHT22;20159;51.072;13.526;2023-05-07T06:43:44;12.30;91.50
33865;DHT22;20159;51.072;13.526;2023-05-07T06:46:10;12.30;91.50
33865;DHT22;20159;51.072;13.526;2023-05-07T06:48:35;12.30;91.50
33865;DHT22;20159;51.072;13.526;2023-05-07T06:51:00;12.30;91.40
33865;DHT22;20159;51.072;13.526;2023-05-07T06:53:26;12.30;91.40
33865;DHT22;20159;51.072;13.526;2023-05-07T06:55:53;12.40;91.40
33865;DHT22;20159;51.072;13.526;2023-05-07T06:58:19;12.40;91.30
33865;DHT22;20159;51.072;13.526;2023-05-07T07:00:44;12.50;91.10
33865;DHT22;20159;51.072;13.526;2023-05-07T07:03:11;12.50;90.90
33865;DHT22;20159;51.072;13.526;2023-05-07T07:05:36;12.50;90.90
33865;DHT22;20159;51.072;13.526;2023-05-07T07:08:02;12.50;90.80
33865;DHT22;20159;51.072;13.526;2023-05-07T07:10:27;12.50;90.70
33865;DHT22;20159;51.072;13.526;2023-05-07T07:12:53;12.60;90.80
33865;DHT22;20159;51.072;13.526;2023-05-07T07:15:19;12.60;90.70
33865;DHT22;20159;51.072;13.526;2023-05-07T07:17:46;12.60;90.80
33865;DHT22;20159;51.072;13.526;2023-05-07T07:20:11;12.60;90.70
33865;DHT22;20159;51.072;13.526;2023-05-07T07:22:37;12.60;90.70
33865;DHT22;20159;51.072;13.526;2023-05-07T07:25:02;12.50;90.70
33865;DHT22;20159;51.072;13.526;2023-05-07T07:27:28;12.60;90.70
33865;DHT22;20159;51.072;13.526;2023-05-07T07:29:53;12.60;90.60
33865;DHT22;20159;51.072;13.526;2023-05-07T07:32:19;12.60;90.70
33865;DHT22;20159;51.072;13.526;2023-05-07T07:34:44;12.60;90.70
33865;DHT22;20159;51.072;13.526;2023-05-07T07:37:10;12.60;90.50
33865;DHT22;20159;51.072;13.526;2023-05-07T07:39:35;12.70;90.50
33865;DHT22;20159;51.072;13.526;2023-05-07T07:42:03;12.70;90.50
33865;DHT22;20159;51.072;13.526;2023-05-07T07:44:28;12.70;90.40
33865;DHT22;20159;51.072;13.526;2023-05-07T07:46:54;10.40;89.50
33865;DHT22;20159;51.072;13.526;2023-05-07T07:49:19;12.70;90.20
33865;DHT22;20159;51.072;13.526;2023-05-07T07:51:45;12.70;90.30
33865;DHT22;20159;51.072;13.526;2023-05-07T07:54:11;12.70;90.30
33865;DHT22;20159;51.072;13.526;2023-05-07T07:56:36;12.70;90.20
33865;DHT22;20159;51.072;13.526;2023-05-07T07:59:02;12.70;90.30
33865;DHT22;20159;51.072;13.526;2023-05-07T08:01:29;12.70;90.30
33865;DHT22;20159;51.072;13.526;2023-05-07T08:03:55;12.70;90.30
33865;DHT22;20159;51.072;13.526;2023-05-07T08:06:21;12.70;90.30
33865;DHT22;20159;51.072;13.526;2023-05-07T08:08:46;12.80;90.30
33865;DHT22;20159;51.072;13.526;2023-05-07T08:11:12;12.80;90.10
33865;DHT22;20159;51.072;13.526;2023-05-07T08:13:38;12.80;90.00
33865;DHT22;20159;51.072;13.526;2023-05-07T08:16:05;12.90;89.90
33865;DHT22;20159;51.072;13.526;2023-05-07T08:18:30;12.90;89.80
33865;DHT22;20159;51.072;13.526;2023-05-07T08:20:56;13.00;89.70
33865;DHT22;20159;51.072;13.526;2023-05-07T08:23:22;13.00;89.60
33865;DHT22;20159;51.072;13.526;2023-05-07T08:25:48;13.10;89.10
33865;DHT22;20159;51.072;13.526;2023-05-07T08:28:14;13.10;89.20
33865;DHT22;20159;51.072;13.526;2023-05-07T08:30:40;13.20;89.20
33865;DHT22;20159;51.072;13.526;2023-05-07T08:33:05;13.10;89.00
33865;DHT22;20159;51.072;13.526;2023-05-07T08:35:31;13.20;88.50
33865;DHT22;20159;51.072;13.526;2023-05-07T08:37:56;13.70;88.80
33865;DHT22;20159;51.072;13.526;2023-05-07T08:40:25;13.20;88.40
33865;DHT22;20159;51.072;13.526;2023-05-07T08:42:52;13.20;88.10
33865;DHT22;20159;51.072;13.526;2023-05-07T08:45:19;13.20;88.10
33865;DHT22;20159;51.072;13.526;2023-05-07T08:47:49;13.20;88.30
33865;DHT22;20159;51.072;13.526;2023-05-07T08:50:17;13.20;87.80
33865;DHT22;20159;51.072;13.526;2023-05-07T08:52:43;13.30;87.50
33865;DHT22;20159;51.072;13.526;2023-05-07T08:55:09;13.30;87.40
33865;DHT22;20159;51.072;13.526;2023-05-07T08:57:35;13.40;87.30
33865;DHT22;20159;51.072;13.526;2023-05-07T09:00:02;13.40;87.30
33865;DHT22;20159;51.072;13.526;2023-05-07T09:02:28;13.40;87.70
33865;DHT22;20159;51.072;13.526;2023-05-07T09:04:54;13.50;88.10
33865;DHT22;20159;51.072;13.526;2023-05-07T09:07:20;13.50;88.20
33865;DHT22;20159;51.072;13.526;2023-05-07T09:09:46;13.60;88.00
33865;DHT22;20159;51.072;13.526;2023-05-07T09:12:12;13.70;87.10
33865;DHT22;20159;51.072;13.526;2023-05-07T09:14:38;13.80;87.30
33865;DHT22;20159;51.072;13.526;2023-05-07T09:17:03;13.80;86.70
33865;DHT22;20159;51.072;13.526;2023-05-07T09:19:30;13.90;86.50
33865;DHT22;20159;51.072;13.526;2023-05-07T09:22:03;14.00;85.90
33865;DHT22;20159;51.072;13.526;2023-05-07T09:24:29;14.00;85.40
33865;DHT22;20159;51.072;13.526;2023-05-07T09:26:59;14.10;85.80
33865;DHT22;20159;51.072;13.526;2023-05-07T09:29:26;14.10;85.40
33865;DHT22;20159;51.072;13.526;2023-05-07T09:31:51;14.20;85.30
33865;DHT22;20159;51.072;13.526;2023-05-07T09:34:17;14.20;84.80
33865;DHT22;20159;51.072;13.526;2023-05-07T09:36:42;14.30;84.80
33865;DHT22;20159;51.072;13.526;2023-05-07T09:39:08;14.30;84.80
33865;DHT22;20159;51.072;13.526;2023-05-07T09:41:43;14.30;84.50
33865;DHT22;20159;51.072;13.526;2023-05-07T09:44:09;14.30;84.20
33865;DHT22;20159;51.072;13.526;2023-05-07T09:46:36;16.00;85.40
33865;DHT22;20159;51.072;13.526;2023-05-07T09:49:06;14.30;84.50
33865;DHT22;20159;51.072;13.526;2023-05-07T09:51:41;14.30;84.10
33865;DHT22;20159;51.072;13.526;2023-05-07T09:54:09;14.40;83.90
33865;DHT22;20159;51.072;13.526;2023-05-07T09:56:35;14.50;84.30
33865;DHT22;20159;51.072;13.526;2023-05-07T09:59:03;14.60;84.20
33865;DHT22;20159;51.072;13.526;2023-05-07T10:01:31;14.70;84.00
33865;DHT22;20159;51.072;13.526;2023-05-07T10:03:57;14.70;83.30
33865;DHT22;20159;51.072;13.526;2023-05-07T10:06:24;14.80;82.90
33865;DHT22;20159;51.072;13.526;2023-05-07T10:08:52;14.90;82.60
33865;DHT22;20159;51.072;13.526;2023-05-07T10:11:18;14.90;82.40
33865;DHT22;20159;51.072;13.526;2023-05-07T10:13:46;14.90;82.50
33865;DHT22;20159;51.072;13.526;2023-05-07T10:16:13;14.90;82.40
33865;DHT22;20159;51.072;13.526;2023-05-07T10:18:41;14.90;82.80
33865;DHT22;20159;51.072;13.526;2023-05-07T10:21:17;15.00;82.10
33865;DHT22;20159;51.072;13.526;2023-05-07T10:23:50;15.00;81.90
33865;DHT22;20159;51.072;13.526;2023-05-07T10:26:20;15.00;82.10
33865;DHT22;20159;51.072;13.526;2023-05-07T10:28:49;15.00;81.50
33865;DHT22;20159;51.072;13.526;2023-05-07T10:31:33;15.00;81.10
33865;DHT22;20159;51.072;13.526;2023-05-07T10:34:01;15.10;81.10
33865;DHT22;20159;51.072;13.526;2023-05-07T10:36:28;15.10;81.50
33865;DHT22;20159;51.072;13.526;2023-05-07T10:38:53;15.10;81.40
33865;DHT22;20159;51.072;13.526;2023-05-07T10:41:20;15.30;81.50
33865;DHT22;20159;51.072;13.526;2023-05-07T10:43:46;15.30;81.20
33865;DHT22;20159;51.072;13.526;2023-05-07T10:46:15;15.40;81.20
33865;DHT22;20159;51.072;13.526;2023-05-07T10:51:27;15.60;79.30
33865;DHT22;20159;51.072;13.526;2023-05-07T10:56:43;15.80;79.00
33865;DHT22;20159;51.072;13.526;2023-05-07T11:02:05;16.00;79.00
33865;DHT22;20159;51.072;13.526;2023-05-07T11:04:32;16.10;78.50
33865;DHT22;20159;51.072;13.526;2023-05-07T11:15:07;16.40;76.10
33865;DHT22;20159;51.072;13.526;2023-05-07T11:17:34;16.30;76.40
33865;DHT22;20159;51.072;13.526;2023-05-07T11:20:01;16.30;76.70
33865;DHT22;20159;51.072;13.526;2023-05-07T11:25:05;16.30;76.00
33865;DHT22;20159;51.072;13.526;2023-05-07T11:27:32;16.30;76.30
33865;DHT22;20159;51.072;13.526;2023-05-07T11:29:58;16.30;76.60
33865;DHT22;20159;51.072;13.526;2023-05-07T11:32:28;16.40;76.50
33865;DHT22;20159;51.072;13.526;2023-05-07T11:34:56;16.40;75.70
33865;DHT22;20159;51.072;13.526;2023-05-07T11:37:23;16.50;76.00
33865;DHT22;20159;51.072;13.526;2023-05-07T11:39:49;16.60;75.50
33865;DHT22;20159;51.072;13.526;2023-05-07T11:42:33;16.60;75.50
33865;DHT22;20159;51.072;13.526;2023-05-07T11:45:00;16.70;74.80
33865;DHT22;20159;51.072;13.526;2023-05-07T11:47:25;16.70;74.60
33865;DHT22;20159;51.072;13.526;2023-05-07T11:49:53;16.70;74.60
33865;DHT22;20159;51.072;13.526;2023-05-07T11:52:20;16.60;74.50
33865;DHT22;20159;51.072;13.526;2023-05-07T11:54:56;16.60;74.50
33865;DHT22;20159;51.072;13.526;2023-05-07T11:57:23;16.50;74.00
33865;DHT22;20159;51.072;13.526;2023-05-07T11:59:53;16.50;74.50
33865;DHT22;20159;51.072;13.526;2023-05-07T12:02:19;16.50;74.20
33865;DHT22;20159;51.072;13.526;2023-05-07T12:04:44;16.40;74.50
33865;DHT22;20159;51.072;13.526;2023-05-07T12:07:14;16.30;74.80
33865;DHT22;20159;51.072;13.526;2023-05-07T12:09:43;16.30;74.70
33865;DHT22;20159;51.072;13.526;2023-05-07T12:12:09;16.30;74.80
33865;DHT22;20159;51.072;13.526;2023-05-07T12:14:42;16.40;75.20
33865;DHT22;20159;51.072;13.526;2023-05-07T12:17:11;16.50;75.10
33865;DHT22;20159;51.072;13.526;2023-05-07T12:19:38;16.70;75.20
33865;DHT22;20159;51.072;13.526;2023-05-07T12:22:04;16.80;75.20
33865;DHT22;20159;51.072;13.526;2023-05-07T12:24:46;16.90;75.00
33865;DHT22;20159;51.072;13.526;2023-05-07T12:27:13;17.10;74.20
33865;DHT22;20159;51.072;13.526;2023-05-07T12:29:38;17.20;74.70
33865;DHT22;20159;51.072;13.526;2023-05-07T12:32:06;17.40;73.80
33865;DHT22;20159;51.072;13.526;2023-05-07T12:34:32;17.50;73.40
33865;DHT22;20159;51.072;13.526;2023-05-07T12:37:01;17.50;73.10
33865;DHT22;20159;51.072;13.526;2023-05-07T12:39:28;17.50;72.70
33865;DHT22;20159;51.072;13.526;2023-05-07T12:41:58;17.60;72.50
33865;DHT22;20159;51.072;13.526;2023-05-07T12:44:28;17.50;71.80
33865;DHT22;20159;51.072;13.526;2023-05-07T12:46:58;17.60;72.30
33865;DHT22;20159;51.072;13.526;2023-05-07T12:49:25;17.60;72.90
33865;DHT22;20159;51.072;13.526;2023-05-07T12:51:54;17.70;72.80
33865;DHT22;20159;51.072;13.526;2023-05-07T12:54:32;17.70;72.00
33865;DHT22;20159;51.072;13.526;2023-05-07T12:57:19;17.80;71.90
33865;DHT22;20159;51.072;13.526;2023-05-07T12:59:45;17.90;72.00
33865;DHT22;20159;51.072;13.526;2023-05-07T13:02:11;17.90;71.80
33865;DHT22;20159;51.072;13.526;2023-05-07T13:04:36;17.90;71.50
33865;DHT22;20159;51.072;13.526;2023-05-07T13:07:02;17.90;71.60
33865;DHT22;20159;51.072;13.526;2023-05-07T13:09:28;17.90;71.70
33865;DHT22;20159;51.072;13.526;2023-05-07T13:11:57;17.90;71.40
33865;DHT22;20159;51.072;13.526;2023-05-07T13:14:29;17.90;70.80
33865;DHT22;20159;51.072;13.526;2023-05-07T13:16:55;17.90;70.90
33865;DHT22;20159;51.072;13.526;2023-05-07T13:19:20;17.90;71.00
33865;DHT22;20159;51.072;13.526;2023-05-07T13:21:46;17.90;71.00
33865;DHT22;20159;51.072;13.526;2023-05-07T13:24:11;17.80;71.20
33865;DHT22;20159;51.072;13.526;2023-05-07T13:26:37;17.80;70.90
33865;DHT22;20159;51.072;13.526;2023-05-07T13:29:02;17.70;70.70
33865;DHT22;20159;51.072;13.526;2023-05-07T13:31:48;17.70;70.70
33865;DHT22;20159;51.072;13.526;2023-05-07T13:34:13;17.70;71.60
33865;DHT22;20159;51.072;13.526;2023-05-07T13:36:42;17.80;72.10
33865;DHT22;20159;51.072;13.526;2023-05-07T13:39:08;17.80;72.10
33865;DHT22;20159;51.072;13.526;2023-05-07T13:41:34;18.00;72.00
33865;DHT22;20159;51.072;13.526;2023-05-07T13:44:07;18.10;71.70
33865;DHT22;20159;51.072;13.526;2023-05-07T13:46:37;18.30;70.80
33865;DHT22;20159;51.072;13.526;2023-05-07T13:49:02;18.50;71.20
33865;DHT22;20159;51.072;13.526;2023-05-07T13:51:28;18.60;70.30
33865;DHT22;20159;51.072;13.526;2023-05-07T13:53:53;18.60;69.30
33865;DHT22;20159;51.072;13.526;2023-05-07T13:56:19;18.70;69.50
33865;DHT22;20159;51.072;13.526;2023-05-07T13:58:48;18.70;69.00
33865;DHT22;20159;51.072;13.526;2023-05-07T14:01:13;18.70;68.60
33865;DHT22;20159;51.072;13.526;2023-05-07T14:03:45;18.60;68.50
33865;DHT22;20159;51.072;13.526;2023-05-07T14:06:10;18.60;68.20
33865;DHT22;20159;51.072;13.526;2023-05-07T14:08:39;18.50;68.60
33865;DHT22;20159;51.072;13.526;2023-05-07T14:11:04;18.50;68.20
33865;DHT22;20159;51.072;13.526;2023-05-07T14:13:30;18.40;69.00
33865;DHT22;20159;51.072;13.526;2023-05-07T14:15:56;18.40;68.70
33865;DHT22;20159;51.072;13.526;2023-05-07T14:18:42;18.30;68.30
33865;DHT22;20159;51.072;13.526;2023-05-07T14:21:07;18.30;68.70
33865;DHT22;20159;51.072;13.526;2023-05-07T14:23:34;18.20;68.60
33865;DHT22;20159;51.072;13.526;2023-05-07T14:26:00;18.30;69.00
33865;DHT22;20159;51.072;13.526;2023-05-07T14:28:25;18.30;68.90
33865;DHT22;20159;51.072;13.526;2023-05-07T14:30:51;18.40;68.50
33865;DHT22;20159;51.072;13.526;2023-05-07T14:33:17;18.50;68.20
33865;DHT22;20159;51.072;13.526;2023-05-07T14:35:42;18.60;68.00
33865;DHT22;20159;51.072;13.526;2023-05-07T14:38:13;18.60;68.10
33865;DHT22;20159;51.072;13.526;2023-05-07T14:40:42;18.70;68.20
33865;DHT22;20159;51.072;13.526;2023-05-07T14:43:07;18.70;67.90
33865;DHT22;20159;51.072;13.526;2023-05-07T14:45:35;18.70;67.40
33865;DHT22;20159;51.072;13.526;2023-05-07T14:48:01;18.70;67.20
33865;DHT22;20159;51.072;13.526;2023-05-07T14:50:26;18.60;67.00
33865;DHT22;20159;51.072;13.526;2023-05-07T14:52:52;18.60;66.90
33865;DHT22;20159;51.072;13.526;2023-05-07T14:55:20;18.50;66.70
33865;DHT22;20159;51.072;13.526;2023-05-07T14:57:52;18.40;66.60
33865;DHT22;20159;51.072;13.526;2023-05-07T15:00:18;18.20;66.70
33865;DHT22;20159;51.072;13.526;2023-05-07T15:03:00;18.20;67.10
33865;DHT22;20159;51.072;13.526;2023-05-07T15:05:28;18.10;67.50
33865;DHT22;20159;51.072;13.526;2023-05-07T15:07:53;18.00;68.30
33865;DHT22;20159;51.072;13.526;2023-05-07T15:10:19;18.00;67.70
33865;DHT22;20159;51.072;13.526;2023-05-07T15:12:44;18.00;67.90
33865;DHT22;20159;51.072;13.526;2023-05-07T15:15:10;17.90;67.40
33865;DHT22;20159;51.072;13.526;2023-05-07T15:17:36;17.90;67.70
33865;DHT22;20159;51.072;13.526;2023-05-07T15:20:01;17.80;67.50
33865;DHT22;20159;51.072;13.526;2023-05-07T15:22:29;17.70;67.60
33865;DHT22;20159;51.072;13.526;2023-05-07T15:24:55;17.70;67.80
33865;DHT22;20159;51.072;13.526;2023-05-07T15:27:22;17.60;68.40
33865;DHT22;20159;51.072;13.526;2023-05-07T15:29:47;17.50;68.80
33865;DHT22;20159;51.072;13.526;2023-05-07T15:32:13;17.50;68.60